sensor_id;sensor_type;location;lat;lon;timestamp;P1;durP1;ratioP1;P2;durP2;ratioP2
67696;SDS011;54486;51.442;6.778;2023-08-31T00:01:46;25.80;;;8.25;;
67696;SDS011;54486;51.442;6.778;2023-08-31T00:04:16;28.52;;;9.13;;
67696;SDS011;54486;51.442;6.778;2023-08-31T00:06:44;26.05;;;8.93;;
67696;SDS011;54486;51.442;6.778;2023-08-31T00:09:13;29.65;;;10.30;;
67696;SDS011;54486;51.442;6.778;2023-08-31T00:11:41;29.40;;;10.13;;
67696;SDS011;54486;51.442;6.778;2023-08-31T00:14:07;23.07;;;7.83;;
67696;SDS011;54486;51.442;6.778;2023-08-31T00:16:35;19.40;;;6.95;;
67696;SDS011;54486;51.442;6.778;2023-08-31T00:19:04;16.27;;;6.22;;
67696;SDS011;54486;51.442;6.778;2023-08-31T00:21:32;18.40;;;6.15;;
67696;SDS011;54486;51.442;6.778;2023-08-31T00:24:00;12.87;;;5.33;;
67696;SDS011;54486;51.442;6.778;2023-08-31T00:26:27;17.52;;;5.70;;
67696;SDS011;54486;51.442;6.778;2023-08-31T00:28:58;14.93;;;5.97;;
67696;SDS011;54486;51.442;6.778;2023-08-31T00:31:25;13.25;;;5.05;;
67696;SDS011;54486;51.442;6.778;2023-08-31T00:33:55;13.40;;;5.20;;
67696;SDS011;54486;51.442;6.778;2023-08-31T00:36:22;16.45;;;5.30;;
67696;SDS011;54486;51.442;6.778;2023-08-31T00:38:50;13.40;;;4.65;;
67696;SDS011;54486;51.442;6.778;2023-08-31T00:41:17;13.75;;;4.78;;
67696;SDS011;54486;51.442;6.778;2023-08-31T00:43:44;12.90;;;5.03;;
67696;SDS011;54486;51.442;6.778;2023-08-31T00:46:12;12.50;;;4.77;;
67696;SDS011;54486;51.442;6.778;2023-08-31T00:48:41;10.17;;;4.40;;
67696;SDS011;54486;51.442;6.778;2023-08-31T00:51:09;14.88;;;4.78;;
67696;SDS011;54486;51.442;6.778;2023-08-31T00:53:38;11.88;;;4.45;;
67696;SDS011;54486;51.442;6.778;2023-08-31T00:56:05;12.30;;;5.03;;
67696;SDS011;54486;51.442;6.778;2023-08-31T00:58:32;13.02;;;4.60;;
67696;SDS011;54486;51.442;6.778;2023-08-31T01:01:11;12.13;;;5.03;;
67696;SDS011;54486;51.442;6.778;2023-08-31T01:04:25;11.77;;;4.95;;
67696;SDS011;54486;51.442;6.778;2023-08-31T01:06:56;13.93;;;5.18;;
67696;SDS011;54486;51.442;6.778;2023-08-31T01:15:28;12.30;;;4.15;;
67696;SDS011;54486;51.442;6.778;2023-08-31T01:17:58;11.45;;;4.05;;
67696;SDS011;54486;51.442;6.778;2023-08-31T01:20:31;11.43;;;3.78;;
67696;SDS011;54486;51.442;6.778;2023-08-31T01:23:16;9.57;;;3.55;;
67696;SDS011;54486;51.442;6.778;2023-08-31T01:25:45;8.52;;;3.78;;
67696;SDS011;54486;51.442;6.778;2023-08-31T01:28:15;9.15;;;3.38;;
67696;SDS011;54486;51.442;6.778;2023-08-31T01:30:43;8.68;;;3.95;;
67696;SDS011;54486;51.442;6.778;2023-08-31T01:33:11;8.43;;;3.42;;
67696;SDS011;54486;51.442;6.778;2023-08-31T01:35:42;7.57;;;3.20;;
67696;SDS011;54486;51.442;6.778;2023-08-31T01:38:12;8.27;;;3.28;;
67696;SDS011;54486;51.442;6.778;2023-08-31T01:43:18;8.30;;;3.40;;
67696;SDS011;54486;51.442;6.778;2023-08-31T01:45:48;9.55;;;4.10;;
67696;SDS011;54486;51.442;6.778;2023-08-31T01:48:17;8.50;;;3.45;;
67696;SDS011;54486;51.442;6.778;2023-08-31T01:50:45;9.65;;;4.05;;
67696;SDS011;54486;51.442;6.778;2023-08-31T01:53:13;9.30;;;4.13;;
67696;SDS011;54486;51.442;6.778;2023-08-31T01:55:40;10.05;;;4.10;;
67696;SDS011;54486;51.442;6.778;2023-08-31T01:58:08;8.95;;;3.95;;
67696;SDS011;54486;51.442;6.778;2023-08-31T02:00:35;10.73;;;3.90;;
67696;SDS011;54486;51.442;6.778;2023-08-31T02:03:05;9.82;;;3.88;;
67696;SDS011;54486;51.442;6.778;2023-08-31T02:05:35;9.52;;;3.78;;
67696;SDS011;54486;51.442;6.778;2023-08-31T02:08:02;10.07;;;4.32;;
67696;SDS011;54486;51.442;6.778;2023-08-31T02:10:30;9.13;;;3.95;;
67696;SDS011;54486;51.442;6.778;2023-08-31T02:12:59;9.77;;;4.30;;
67696;SDS011;54486;51.442;6.778;2023-08-31T02:15:26;10.98;;;4.05;;
67696;SDS011;54486;51.442;6.778;2023-08-31T02:17:54;11.27;;;4.37;;
67696;SDS011;54486;51.442;6.778;2023-08-31T02:20:21;10.13;;;4.15;;
67696;SDS011;54486;51.442;6.778;2023-08-31T02:22:48;10.48;;;4.03;;
67696;SDS011;54486;51.442;6.778;2023-08-31T02:25:16;9.83;;;3.80;;
67696;SDS011;54486;51.442;6.778;2023-08-31T02:27:44;10.07;;;4.32;;
67696;SDS011;54486;51.442;6.778;2023-08-31T02:30:11;9.82;;;4.30;;
67696;SDS011;54486;51.442;6.778;2023-08-31T02:32:38;10.25;;;4.20;;
67696;SDS011;54486;51.442;6.778;2023-08-31T02:35:06;8.77;;;4.13;;
67696;SDS011;54486;51.442;6.778;2023-08-31T02:37:35;9.48;;;4.10;;
67696;SDS011;54486;51.442;6.778;2023-08-31T02:40:02;10.90;;;4.45;;
67696;SDS011;54486;51.442;6.778;2023-08-31T02:42:30;8.85;;;4.10;;
67696;SDS011;54486;51.442;6.778;2023-08-31T02:44:58;10.70;;;4.33;;
67696;SDS011;54486;51.442;6.778;2023-08-31T02:47:25;11.27;;;4.38;;
67696;SDS011;54486;51.442;6.778;2023-08-31T02:49:54;10.83;;;4.07;;
67696;SDS011;54486;51.442;6.778;2023-08-31T02:52:22;10.07;;;4.22;;
67696;SDS011;54486;51.442;6.778;2023-08-31T02:54:49;9.40;;;4.40;;
67696;SDS011;54486;51.442;6.778;2023-08-31T02:57:17;9.43;;;3.70;;
67696;SDS011;54486;51.442;6.778;2023-08-31T02:59:49;9.40;;;4.20;;
67696;SDS011;54486;51.442;6.778;2023-08-31T03:02:18;10.25;;;3.97;;
67696;SDS011;54486;51.442;6.778;2023-08-31T03:04:45;10.02;;;4.40;;
67696;SDS011;54486;51.442;6.778;2023-08-31T03:07:13;9.82;;;4.78;;
67696;SDS011;54486;51.442;6.778;2023-08-31T03:09:41;9.63;;;4.00;;
67696;SDS011;54486;51.442;6.778;2023-08-31T03:12:09;10.85;;;4.63;;
67696;SDS011;54486;51.442;6.778;2023-08-31T03:14:36;10.20;;;4.00;;
67696;SDS011;54486;51.442;6.778;2023-08-31T03:17:03;10.90;;;4.20;;
67696;SDS011;54486;51.442;6.778;2023-08-31T03:19:30;10.98;;;4.75;;
67696;SDS011;54486;51.442;6.778;2023-08-31T03:21:58;10.52;;;4.25;;
67696;SDS011;54486;51.442;6.778;2023-08-31T03:24:26;11.27;;;4.47;;
67696;SDS011;54486;51.442;6.778;2023-08-31T03:26:53;9.90;;;4.43;;
67696;SDS011;54486;51.442;6.778;2023-08-31T03:29:20;8.77;;;4.20;;
67696;SDS011;54486;51.442;6.778;2023-08-31T03:31:48;9.88;;;4.20;;
67696;SDS011;54486;51.442;6.778;2023-08-31T03:34:16;9.77;;;4.00;;
67696;SDS011;54486;51.442;6.778;2023-08-31T03:36:44;9.75;;;4.18;;
67696;SDS011;54486;51.442;6.778;2023-08-31T03:39:12;10.07;;;4.47;;
67696;SDS011;54486;51.442;6.778;2023-08-31T03:41:40;9.70;;;3.90;;
67696;SDS011;54486;51.442;6.778;2023-08-31T03:44:07;10.43;;;4.35;;
67696;SDS011;54486;51.442;6.778;2023-08-31T03:46:35;9.52;;;4.30;;
67696;SDS011;54486;51.442;6.778;2023-08-31T03:49:02;10.55;;;4.63;;
67696;SDS011;54486;51.442;6.778;2023-08-31T03:51:30;10.95;;;5.20;;
67696;SDS011;54486;51.442;6.778;2023-08-31T03:53:58;10.48;;;4.50;;
67696;SDS011;54486;51.442;6.778;2023-08-31T03:56:25;10.32;;;5.13;;
67696;SDS011;54486;51.442;6.778;2023-08-31T03:58:53;11.95;;;4.72;;
67696;SDS011;54486;51.442;6.778;2023-08-31T04:01:21;11.43;;;5.25;;
67696;SDS011;54486;51.442;6.778;2023-08-31T04:03:49;11.13;;;5.10;;
67696;SDS011;54486;51.442;6.778;2023-08-31T04:06:16;11.23;;;4.72;;
67696;SDS011;54486;51.442;6.778;2023-08-31T04:08:44;10.27;;;4.40;;
67696;SDS011;54486;51.442;6.778;2023-08-31T04:11:12;10.93;;;4.75;;
67696;SDS011;54486;51.442;6.778;2023-08-31T04:13:40;9.38;;;4.50;;
67696;SDS011;54486;51.442;6.778;2023-08-31T04:16:08;10.75;;;4.68;;
67696;SDS011;54486;51.442;6.778;2023-08-31T04:18:35;12.13;;;4.97;;
67696;SDS011;54486;51.442;6.778;2023-08-31T04:21:02;10.38;;;4.43;;
67696;SDS011;54486;51.442;6.778;2023-08-31T04:23:29;10.15;;;4.22;;
67696;SDS011;54486;51.442;6.778;2023-08-31T04:25:57;10.07;;;4.47;;
67696;SDS011;54486;51.442;6.778;2023-08-31T04:28:25;8.70;;;3.83;;
67696;SDS011;54486;51.442;6.778;2023-08-31T04:30:52;10.57;;;4.60;;
67696;SDS011;54486;51.442;6.778;2023-08-31T04:33:19;11.50;;;4.70;;
67696;SDS011;54486;51.442;6.778;2023-08-31T04:35:46;11.63;;;4.60;;
67696;SDS011;54486;51.442;6.778;2023-08-31T04:38:13;9.63;;;4.30;;
67696;SDS011;54486;51.442;6.778;2023-08-31T04:40:41;10.43;;;4.35;;
67696;SDS011;54486;51.442;6.778;2023-08-31T04:43:10;11.30;;;4.43;;
67696;SDS011;54486;51.442;6.778;2023-08-31T04:45:38;8.17;;;3.80;;
67696;SDS011;54486;51.442;6.778;2023-08-31T04:48:05;10.95;;;4.13;;
67696;SDS011;54486;51.442;6.778;2023-08-31T04:50:33;10.95;;;4.40;;
67696;SDS011;54486;51.442;6.778;2023-08-31T04:53:00;12.05;;;4.50;;
67696;SDS011;54486;51.442;6.778;2023-08-31T04:55:27;10.07;;;4.07;;
67696;SDS011;54486;51.442;6.778;2023-08-31T04:57:55;9.57;;;4.25;;
67696;SDS011;54486;51.442;6.778;2023-08-31T05:00:24;11.45;;;4.60;;
67696;SDS011;54486;51.442;6.778;2023-08-31T05:02:52;10.80;;;4.25;;
67696;SDS011;54486;51.442;6.778;2023-08-31T05:05:19;10.82;;;4.63;;
67696;SDS011;54486;51.442;6.778;2023-08-31T05:07:47;9.25;;;4.45;;
67696;SDS011;54486;51.442;6.778;2023-08-31T05:10:14;11.00;;;4.50;;
67696;SDS011;54486;51.442;6.778;2023-08-31T05:12:44;10.50;;;4.60;;
67696;SDS011;54486;51.442;6.778;2023-08-31T05:15:11;11.13;;;4.22;;
67696;SDS011;54486;51.442;6.778;2023-08-31T05:17:39;9.95;;;4.93;;
67696;SDS011;54486;51.442;6.778;2023-08-31T05:20:06;12.25;;;4.20;;
67696;SDS011;54486;51.442;6.778;2023-08-31T05:22:35;12.50;;;4.97;;
67696;SDS011;54486;51.442;6.778;2023-08-31T05:25:03;11.98;;;5.50;;
67696;SDS011;54486;51.442;6.778;2023-08-31T05:27:32;11.70;;;4.73;;
67696;SDS011;54486;51.442;6.778;2023-08-31T05:30:00;12.05;;;4.88;;
67696;SDS011;54486;51.442;6.778;2023-08-31T05:32:28;9.90;;;4.25;;
67696;SDS011;54486;51.442;6.778;2023-08-31T05:34:56;10.90;;;5.00;;
67696;SDS011;54486;51.442;6.778;2023-08-31T05:37:25;10.70;;;4.80;;
67696;SDS011;54486;51.442;6.778;2023-08-31T05:39:52;12.10;;;4.80;;
67696;SDS011;54486;51.442;6.778;2023-08-31T05:42:19;10.88;;;4.35;;
67696;SDS011;54486;51.442;6.778;2023-08-31T05:44:48;10.25;;;4.70;;
67696;SDS011;54486;51.442;6.778;2023-08-31T05:47:16;10.80;;;4.63;;
67696;SDS011;54486;51.442;6.778;2023-08-31T05:49:45;11.00;;;5.05;;
67696;SDS011;54486;51.442;6.778;2023-08-31T05:52:13;10.77;;;5.03;;
67696;SDS011;54486;51.442;6.778;2023-08-31T05:54:40;11.80;;;5.47;;
67696;SDS011;54486;51.442;6.778;2023-08-31T05:57:07;10.47;;;4.93;;
67696;SDS011;54486;51.442;6.778;2023-08-31T05:59:35;11.70;;;4.90;;
67696;SDS011;54486;51.442;6.778;2023-08-31T06:02:01;12.15;;;5.20;;
67696;SDS011;54486;51.442;6.778;2023-08-31T06:04:34;12.95;;;5.75;;
67696;SDS011;54486;51.442;6.778;2023-08-31T06:07:03;11.80;;;5.15;;
67696;SDS011;54486;51.442;6.778;2023-08-31T06:09:30;13.80;;;6.20;;
67696;SDS011;54486;51.442;6.778;2023-08-31T06:11:58;11.77;;;5.40;;
67696;SDS011;54486;51.442;6.778;2023-08-31T06:14:25;13.35;;;5.57;;
67696;SDS011;54486;51.442;6.778;2023-08-31T06:16:53;14.13;;;5.90;;
67696;SDS011;54486;51.442;6.778;2023-08-31T06:19:20;14.68;;;6.20;;
67696;SDS011;54486;51.442;6.778;2023-08-31T06:21:47;16.35;;;6.38;;
67696;SDS011;54486;51.442;6.778;2023-08-31T06:24:15;12.38;;;5.15;;
67696;SDS011;54486;51.442;6.778;2023-08-31T06:26:42;12.75;;;5.25;;
67696;SDS011;54486;51.442;6.778;2023-08-31T06:29:09;13.33;;;4.97;;
67696;SDS011;54486;51.442;6.778;2023-08-31T06:31:37;11.80;;;5.15;;
67696;SDS011;54486;51.442;6.778;2023-08-31T06:34:05;11.50;;;4.70;;
67696;SDS011;54486;51.442;6.778;2023-08-31T06:36:31;10.50;;;5.15;;
67696;SDS011;54486;51.442;6.778;2023-08-31T06:38:59;9.77;;;4.55;;
67696;SDS011;54486;51.442;6.778;2023-08-31T06:41:26;14.13;;;4.95;;
67696;SDS011;54486;51.442;6.778;2023-08-31T06:43:54;10.13;;;4.50;;
67696;SDS011;54486;51.442;6.778;2023-08-31T06:46:22;11.50;;;4.43;;
67696;SDS011;54486;51.442;6.778;2023-08-31T06:48:51;10.07;;;4.43;;
67696;SDS011;54486;51.442;6.778;2023-08-31T06:51:19;11.50;;;4.70;;
67696;SDS011;54486;51.442;6.778;2023-08-31T06:53:51;12.93;;;4.78;;
67696;SDS011;54486;51.442;6.778;2023-08-31T06:56:19;11.75;;;4.38;;
67696;SDS011;54486;51.442;6.778;2023-08-31T06:58:46;10.18;;;4.53;;
67696;SDS011;54486;51.442;6.778;2023-08-31T07:01:13;12.50;;;4.70;;
67696;SDS011;54486;51.442;6.778;2023-08-31T07:03:41;11.38;;;4.50;;
67696;SDS011;54486;51.442;6.778;2023-08-31T07:06:09;9.52;;;4.38;;
67696;SDS011;54486;51.442;6.778;2023-08-31T07:08:36;9.95;;;4.40;;
67696;SDS011;54486;51.442;6.778;2023-08-31T07:11:07;11.07;;;3.85;;
67696;SDS011;54486;51.442;6.778;2023-08-31T07:13:34;9.90;;;3.78;;
67696;SDS011;54486;51.442;6.778;2023-08-31T07:16:01;10.82;;;4.22;;
67696;SDS011;54486;51.442;6.778;2023-08-31T07:18:29;10.18;;;3.80;;
67696;SDS011;54486;51.442;6.778;2023-08-31T07:20:56;10.15;;;3.50;;
67696;SDS011;54486;51.442;6.778;2023-08-31T07:23:24;11.27;;;3.58;;
67696;SDS011;54486;51.442;6.778;2023-08-31T07:25:52;8.80;;;3.10;;
67696;SDS011;54486;51.442;6.778;2023-08-31T07:28:19;7.97;;;3.40;;
67696;SDS011;54486;51.442;6.778;2023-08-31T07:30:47;9.60;;;3.57;;
67696;SDS011;54486;51.442;6.778;2023-08-31T07:33:14;8.70;;;3.30;;
67696;SDS011;54486;51.442;6.778;2023-08-31T07:35:57;8.75;;;3.30;;
67696;SDS011;54486;51.442;6.778;2023-08-31T07:38:27;9.85;;;3.10;;
67696;SDS011;54486;51.442;6.778;2023-08-31T07:40:55;8.55;;;3.40;;
67696;SDS011;54486;51.442;6.778;2023-08-31T07:43:22;7.32;;;3.22;;
67696;SDS011;54486;51.442;6.778;2023-08-31T07:45:50;9.68;;;3.47;;
67696;SDS011;54486;51.442;6.778;2023-08-31T07:48:17;9.67;;;3.87;;
67696;SDS011;54486;51.442;6.778;2023-08-31T07:50:44;8.85;;;2.92;;
67696;SDS011;54486;51.442;6.778;2023-08-31T07:53:12;8.75;;;3.28;;
67696;SDS011;54486;51.442;6.778;2023-08-31T07:55:39;8.35;;;3.33;;
67696;SDS011;54486;51.442;6.778;2023-08-31T07:58:06;9.20;;;3.47;;
67696;SDS011;54486;51.442;6.778;2023-08-31T08:00:33;9.45;;;3.10;;
67696;SDS011;54486;51.442;6.778;2023-08-31T08:03:01;9.30;;;3.33;;
67696;SDS011;54486;51.442;6.778;2023-08-31T08:05:28;8.80;;;3.60;;
67696;SDS011;54486;51.442;6.778;2023-08-31T08:07:56;8.68;;;3.40;;
67696;SDS011;54486;51.442;6.778;2023-08-31T08:10:23;9.40;;;3.42;;
67696;SDS011;54486;51.442;6.778;2023-08-31T08:12:51;9.43;;;3.70;;
67696;SDS011;54486;51.442;6.778;2023-08-31T08:15:18;9.20;;;3.80;;
67696;SDS011;54486;51.442;6.778;2023-08-31T08:17:45;8.85;;;3.70;;
67696;SDS011;54486;51.442;6.778;2023-08-31T08:20:12;10.00;;;3.58;;
67696;SDS011;54486;51.442;6.778;2023-08-31T08:22:39;10.35;;;3.40;;
67696;SDS011;54486;51.442;6.778;2023-08-31T08:25:06;7.87;;;3.30;;
67696;SDS011;54486;51.442;6.778;2023-08-31T08:27:33;10.45;;;4.10;;
67696;SDS011;54486;51.442;6.778;2023-08-31T08:30:01;8.15;;;3.10;;
67696;SDS011;54486;51.442;6.778;2023-08-31T08:32:28;9.90;;;4.13;;
67696;SDS011;54486;51.442;6.778;2023-08-31T08:34:55;9.02;;;3.78;;
67696;SDS011;54486;51.442;6.778;2023-08-31T08:37:22;10.88;;;4.35;;
67696;SDS011;54486;51.442;6.778;2023-08-31T08:39:49;10.93;;;3.60;;
67696;SDS011;54486;51.442;6.778;2023-08-31T08:42:20;10.70;;;4.63;;
67696;SDS011;54486;51.442;6.778;2023-08-31T08:44:51;11.10;;;3.80;;
67696;SDS011;54486;51.442;6.778;2023-08-31T08:47:18;9.48;;;4.07;;
67696;SDS011;54486;51.442;6.778;2023-08-31T08:49:47;8.65;;;3.65;;
67696;SDS011;54486;51.442;6.778;2023-08-31T08:52:15;9.83;;;4.07;;
67696;SDS011;54486;51.442;6.778;2023-08-31T08:54:42;10.63;;;4.43;;
67696;SDS011;54486;51.442;6.778;2023-08-31T08:57:10;10.25;;;4.03;;
67696;SDS011;54486;51.442;6.778;2023-08-31T08:59:37;9.87;;;4.33;;
67696;SDS011;54486;51.442;6.778;2023-08-31T09:02:04;10.73;;;3.63;;
67696;SDS011;54486;51.442;6.778;2023-08-31T09:04:32;10.05;;;3.45;;
67696;SDS011;54486;51.442;6.778;2023-08-31T09:06:59;8.80;;;3.42;;
67696;SDS011;54486;51.442;6.778;2023-08-31T09:09:27;8.68;;;3.75;;
67696;SDS011;54486;51.442;6.778;2023-08-31T09:11:54;9.98;;;3.55;;
67696;SDS011;54486;51.442;6.778;2023-08-31T09:14:22;10.05;;;3.80;;
67696;SDS011;54486;51.442;6.778;2023-08-31T09:16:51;9.57;;;3.73;;
67696;SDS011;54486;51.442;6.778;2023-08-31T09:21:48;11.20;;;3.97;;
67696;SDS011;54486;51.442;6.778;2023-08-31T09:24:16;10.48;;;4.38;;
67696;SDS011;54486;51.442;6.778;2023-08-31T09:26:52;9.95;;;3.75;;
67696;SDS011;54486;51.442;6.778;2023-08-31T09:29:22;11.90;;;4.05;;
67696;SDS011;54486;51.442;6.778;2023-08-31T09:31:49;11.43;;;4.10;;
67696;SDS011;54486;51.442;6.778;2023-08-31T09:34:17;9.13;;;3.37;;
67696;SDS011;54486;51.442;6.778;2023-08-31T09:36:45;8.40;;;3.17;;
67696;SDS011;54486;51.442;6.778;2023-08-31T09:39:13;11.15;;;3.58;;
67696;SDS011;54486;51.442;6.778;2023-08-31T09:41:53;9.10;;;3.13;;
67696;SDS011;54486;51.442;6.778;2023-08-31T09:44:22;8.18;;;2.50;;
67696;SDS011;54486;51.442;6.778;2023-08-31T09:46:49;9.15;;;2.85;;
67696;SDS011;54486;51.442;6.778;2023-08-31T09:49:17;7.93;;;2.60;;
67696;SDS011;54486;51.442;6.778;2023-08-31T09:51:48;9.05;;;2.40;;
67696;SDS011;54486;51.442;6.778;2023-08-31T09:54:18;8.60;;;2.60;;
67696;SDS011;54486;51.442;6.778;2023-08-31T09:56:48;7.73;;;2.50;;
67696;SDS011;54486;51.442;6.778;2023-08-31T09:59:16;9.10;;;2.78;;
67696;SDS011;54486;51.442;6.778;2023-08-31T10:01:46;7.53;;;2.43;;
67696;SDS011;54486;51.442;6.778;2023-08-31T10:04:14;9.83;;;2.60;;
67696;SDS011;54486;51.442;6.778;2023-08-31T10:06:43;8.52;;;2.33;;
67696;SDS011;54486;51.442;6.778;2023-08-31T10:09:10;8.23;;;2.65;;
67696;SDS011;54486;51.442;6.778;2023-08-31T10:11:38;8.18;;;2.53;;
67696;SDS011;54486;51.442;6.778;2023-08-31T10:14:06;9.63;;;2.55;;
67696;SDS011;54486;51.442;6.778;2023-08-31T10:16:36;7.45;;;2.20;;
67696;SDS011;54486;51.442;6.778;2023-08-31T10:19:08;7.93;;;2.70;;
67696;SDS011;54486;51.442;6.778;2023-08-31T10:21:35;8.27;;;2.83;;
67696;SDS011;54486;51.442;6.778;2023-08-31T10:24:02;8.20;;;2.80;;
67696;SDS011;54486;51.442;6.778;2023-08-31T10:26:31;10.70;;;3.10;;
67696;SDS011;54486;51.442;6.778;2023-08-31T10:28:58;7.33;;;2.23;;
67696;SDS011;54486;51.442;6.778;2023-08-31T10:31:30;7.53;;;2.97;;
67696;SDS011;54486;51.442;6.778;2023-08-31T10:34:01;8.20;;;2.55;;
67696;SDS011;54486;51.442;6.778;2023-08-31T10:36:45;8.85;;;2.90;;
67696;SDS011;54486;51.442;6.778;2023-08-31T10:39:19;8.10;;;2.93;;
67696;SDS011;54486;51.442;6.778;2023-08-31T10:41:53;8.65;;;2.40;;
67696;SDS011;54486;51.442;6.778;2023-08-31T10:44:22;8.13;;;2.22;;
67696;SDS011;54486;51.442;6.778;2023-08-31T10:46:53;7.75;;;2.60;;
67696;SDS011;54486;51.442;6.778;2023-08-31T10:49:22;7.47;;;2.42;;
67696;SDS011;54486;51.442;6.778;2023-08-31T10:51:53;9.68;;;2.88;;
67696;SDS011;54486;51.442;6.778;2023-08-31T10:54:23;8.20;;;2.50;;
67696;SDS011;54486;51.442;6.778;2023-08-31T10:59:45;8.02;;;2.47;;
67696;SDS011;54486;51.442;6.778;2023-08-31T11:02:35;9.77;;;2.83;;
67696;SDS011;54486;51.442;6.778;2023-08-31T11:05:21;9.48;;;3.00;;
67696;SDS011;54486;51.442;6.778;2023-08-31T11:07:50;7.28;;;2.70;;
67696;SDS011;54486;51.442;6.778;2023-08-31T11:10:20;8.43;;;2.17;;
67696;SDS011;54486;51.442;6.778;2023-08-31T11:12:50;7.78;;;2.60;;
67696;SDS011;54486;51.442;6.778;2023-08-31T11:15:22;8.40;;;2.28;;
67696;SDS011;54486;51.442;6.778;2023-08-31T11:17:53;7.93;;;2.33;;
67696;SDS011;54486;51.442;6.778;2023-08-31T11:20:22;8.52;;;2.70;;
67696;SDS011;54486;51.442;6.778;2023-08-31T11:22:54;7.97;;;2.47;;
67696;SDS011;54486;51.442;6.778;2023-08-31T11:25:21;8.00;;;2.38;;
67696;SDS011;54486;51.442;6.778;2023-08-31T11:27:54;8.93;;;2.42;;
67696;SDS011;54486;51.442;6.778;2023-08-31T11:30:29;7.93;;;2.53;;
67696;SDS011;54486;51.442;6.778;2023-08-31T11:33:06;7.68;;;2.50;;
67696;SDS011;54486;51.442;6.778;2023-08-31T11:35:36;7.00;;;2.28;;
67696;SDS011;54486;51.442;6.778;2023-08-31T11:38:09;8.17;;;2.67;;
67696;SDS011;54486;51.442;6.778;2023-08-31T11:40:36;7.50;;;2.20;;
67696;SDS011;54486;51.442;6.778;2023-08-31T11:43:04;8.65;;;2.38;;
67696;SDS011;54486;51.442;6.778;2023-08-31T11:45:33;7.30;;;2.25;;
67696;SDS011;54486;51.442;6.778;2023-08-31T11:48:03;7.63;;;2.30;;
67696;SDS011;54486;51.442;6.778;2023-08-31T11:50:30;7.45;;;2.08;;
67696;SDS011;54486;51.442;6.778;2023-08-31T11:52:57;7.20;;;2.22;;
67696;SDS011;54486;51.442;6.778;2023-08-31T11:55:25;8.10;;;2.47;;
67696;SDS011;54486;51.442;6.778;2023-08-31T11:57:53;8.68;;;2.70;;
67696;SDS011;54486;51.442;6.778;2023-08-31T12:00:21;7.32;;;2.30;;
67696;SDS011;54486;51.442;6.778;2023-08-31T12:03:01;7.43;;;2.67;;
67696;SDS011;54486;51.442;6.778;2023-08-31T12:05:43;8.02;;;2.15;;
67696;SDS011;54486;51.442;6.778;2023-08-31T12:08:12;7.97;;;2.22;;
67696;SDS011;54486;51.442;6.778;2023-08-31T12:10:40;7.60;;;2.53;;
67696;SDS011;54486;51.442;6.778;2023-08-31T12:13:09;8.05;;;2.45;;
67696;SDS011;54486;51.442;6.778;2023-08-31T12:15:38;8.10;;;3.00;;
67696;SDS011;54486;51.442;6.778;2023-08-31T12:18:06;7.40;;;2.03;;
67696;SDS011;54486;51.442;6.778;2023-08-31T12:20:43;8.57;;;2.70;;
67696;SDS011;54486;51.442;6.778;2023-08-31T12:23:14;9.82;;;2.95;;
67696;SDS011;54486;51.442;6.778;2023-08-31T12:25:50;9.43;;;2.60;;
67696;SDS011;54486;51.442;6.778;2023-08-31T12:28:21;8.85;;;2.47;;
67696;SDS011;54486;51.442;6.778;2023-08-31T12:33:20;6.73;;;2.20;;
67696;SDS011;54486;51.442;6.778;2023-08-31T12:35:48;8.43;;;2.42;;
67696;SDS011;54486;51.442;6.778;2023-08-31T12:38:15;7.50;;;2.20;;
67696;SDS011;54486;51.442;6.778;2023-08-31T12:40:42;7.78;;;2.38;;
67696;SDS011;54486;51.442;6.778;2023-08-31T12:43:09;8.10;;;2.72;;
67696;SDS011;54486;51.442;6.778;2023-08-31T12:45:37;8.82;;;2.33;;
67696;SDS011;54486;51.442;6.778;2023-08-31T12:48:05;11.63;;;3.10;;
67696;SDS011;54486;51.442;6.778;2023-08-31T12:50:32;9.57;;;3.22;;
67696;SDS011;54486;51.442;6.778;2023-08-31T12:52:59;8.02;;;2.83;;
67696;SDS011;54486;51.442;6.778;2023-08-31T12:55:26;8.30;;;2.50;;
67696;SDS011;54486;51.442;6.778;2023-08-31T12:57:53;8.27;;;2.83;;
67696;SDS011;54486;51.442;6.778;2023-08-31T13:00:20;7.83;;;2.23;;
67696;SDS011;54486;51.442;6.778;2023-08-31T13:02:47;8.60;;;2.63;;
67696;SDS011;54486;51.442;6.778;2023-08-31T13:05:17;8.63;;;2.95;;
67696;SDS011;54486;51.442;6.778;2023-08-31T13:07:44;8.77;;;3.07;;
67696;SDS011;54486;51.442;6.778;2023-08-31T13:10:12;7.22;;;2.20;;
67696;SDS011;54486;51.442;6.778;2023-08-31T13:12:39;8.10;;;2.20;;
67696;SDS011;54486;51.442;6.778;2023-08-31T13:15:06;6.00;;;2.10;;
67696;SDS011;54486;51.442;6.778;2023-08-31T13:17:35;7.63;;;2.05;;
67696;SDS011;54486;51.442;6.778;2023-08-31T13:20:03;7.30;;;2.20;;
67696;SDS011;54486;51.442;6.778;2023-08-31T13:22:31;7.63;;;2.40;;
67696;SDS011;54486;51.442;6.778;2023-08-31T13:24:58;8.23;;;2.00;;
67696;SDS011;54486;51.442;6.778;2023-08-31T13:27:25;7.57;;;2.35;;
67696;SDS011;54486;51.442;6.778;2023-08-31T13:29:53;8.75;;;2.35;;
67696;SDS011;54486;51.442;6.778;2023-08-31T13:32:20;7.53;;;2.08;;
67696;SDS011;54486;51.442;6.778;2023-08-31T13:34:47;7.82;;;2.40;;
67696;SDS011;54486;51.442;6.778;2023-08-31T13:37:14;9.43;;;2.50;;
67696;SDS011;54486;51.442;6.778;2023-08-31T13:39:41;7.22;;;2.20;;
67696;SDS011;54486;51.442;6.778;2023-08-31T13:42:09;7.30;;;2.15;;
67696;SDS011;54486;51.442;6.778;2023-08-31T13:44:36;7.38;;;2.22;;
67696;SDS011;54486;51.442;6.778;2023-08-31T13:47:03;7.03;;;2.20;;
67696;SDS011;54486;51.442;6.778;2023-08-31T13:49:31;7.80;;;2.17;;
67696;SDS011;54486;51.442;6.778;2023-08-31T13:51:59;7.70;;;2.10;;
67696;SDS011;54486;51.442;6.778;2023-08-31T13:54:26;6.47;;;1.92;;
67696;SDS011;54486;51.442;6.778;2023-08-31T13:56:53;7.10;;;2.00;;
67696;SDS011;54486;51.442;6.778;2023-08-31T13:59:20;7.10;;;2.17;;
67696;SDS011;54486;51.442;6.778;2023-08-31T14:01:47;7.75;;;2.20;;
67696;SDS011;54486;51.442;6.778;2023-08-31T14:04:14;8.57;;;1.90;;
67696;SDS011;54486;51.442;6.778;2023-08-31T14:06:41;6.65;;;2.55;;
67696;SDS011;54486;51.442;6.778;2023-08-31T14:09:08;7.28;;;1.90;;
67696;SDS011;54486;51.442;6.778;2023-08-31T14:11:35;8.70;;;2.67;;
67696;SDS011;54486;51.442;6.778;2023-08-31T14:14:03;9.60;;;3.57;;
67696;SDS011;54486;51.442;6.778;2023-08-31T14:16:32;9.07;;;3.37;;
67696;SDS011;54486;51.442;6.778;2023-08-31T14:19:00;9.10;;;3.80;;
67696;SDS011;54486;51.442;6.778;2023-08-31T14:21:28;9.90;;;4.10;;
67696;SDS011;54486;51.442;6.778;2023-08-31T14:23:55;10.00;;;3.87;;
67696;SDS011;54486;51.442;6.778;2023-08-31T14:26:22;9.23;;;4.05;;
67696;SDS011;54486;51.442;6.778;2023-08-31T14:28:50;11.60;;;4.65;;
67696;SDS011;54486;51.442;6.778;2023-08-31T14:31:19;12.55;;;5.32;;
67696;SDS011;54486;51.442;6.778;2023-08-31T14:33:46;11.75;;;5.28;;
67696;SDS011;54486;51.442;6.778;2023-08-31T14:36:14;11.38;;;4.30;;
67696;SDS011;54486;51.442;6.778;2023-08-31T14:38:41;11.27;;;4.22;;
67696;SDS011;54486;51.442;6.778;2023-08-31T14:41:09;10.02;;;4.43;;
67696;SDS011;54486;51.442;6.778;2023-08-31T14:43:35;9.55;;;3.88;;
67696;SDS011;54486;51.442;6.778;2023-08-31T14:46:03;10.70;;;4.30;;
67696;SDS011;54486;51.442;6.778;2023-08-31T14:48:30;9.20;;;4.10;;
67696;SDS011;54486;51.442;6.778;2023-08-31T14:50:58;10.95;;;4.32;;
67696;SDS011;54486;51.442;6.778;2023-08-31T14:53:27;10.20;;;4.50;;
67696;SDS011;54486;51.442;6.778;2023-08-31T14:55:54;10.68;;;4.05;;
67696;SDS011;54486;51.442;6.778;2023-08-31T14:58:22;9.38;;;3.58;;
67696;SDS011;54486;51.442;6.778;2023-08-31T15:00:49;9.70;;;3.67;;
67696;SDS011;54486;51.442;6.778;2023-08-31T15:03:16;8.45;;;3.15;;
67696;SDS011;54486;51.442;6.778;2023-08-31T15:05:44;8.93;;;2.90;;